sensor_id;sensor_type;location;lat;lon;timestamp;pressure;altitude;pressure_sealevel;temperature;humidity
84143;BME280;74260;50.772;7.730;2024-03-08T00:00:15;98929.53;;;2.46;77.48
84143;BME280;74260;50.772;7.730;2024-03-08T00:00:48;98923.91;;;2.48;77.07
84143;BME280;74260;50.772;7.730;2024-03-08T00:01:19;98932.41;;;2.49;77.39
84143;BME280;74260;50.772;7.730;2024-03-08T00:01:49;98916.13;;;2.40;77.25
84143;BME280;74260;50.772;7.730;2024-03-08T00:02:19;98929.53;;;2.46;77.31
84143;BME280;74260;50.772;7.730;2024-03-08T00:02:50;98937.16;;;2.46;77.41
84143;BME280;74260;50.772;7.730;2024-03-08T00:03:26;98931.72;;;2.43;77.48
84143;BME280;74260;50.772;7.730;2024-03-08T00:03:57;98930.47;;;2.39;77.82
84143;BME280;74260;50.772;7.730;2024-03-08T00:04:27;98924.09;;;2.35;78.07
84143;BME280;74260;50.772;7.730;2024-03-08T00:04:58;98928.84;;;2.32;77.98
84143;BME280;74260;50.772;7.730;2024-03-08T00:05:29;98928.09;;;2.33;78.25
84143;BME280;74260;50.772;7.730;2024-03-08T00:05:59;98926.13;;;2.31;78.52
84143;BME280;74260;50.772;7.730;2024-03-08T00:06:30;98930.28;;;2.38;78.39
84143;BME280;74260;50.772;7.730;2024-03-08T00:07:00;98913.03;;;2.21;78.11
84143;BME280;74260;50.772;7.730;2024-03-08T00:07:30;98930.63;;;2.33;78.54
84143;BME280;74260;50.772;7.730;2024-03-08T00:08:01;98924.47;;;2.31;78.60
84143;BME280;74260;50.772;7.730;2024-03-08T00:08:31;98900.00;;;2.11;78.92
84143;BME280;74260;50.772;7.730;2024-03-08T00:09:03;98942.47;;;2.26;79.18
84143;BME280;74260;50.772;7.730;2024-03-08T00:09:34;98926.31;;;2.18;79.27
84143;BME280;74260;50.772;7.730;2024-03-08T00:10:05;98925.03;;;2.15;79.01
84143;BME280;74260;50.772;7.730;2024-03-08T00:10:36;98930.81;;;2.21;79.11
84143;BME280;74260;50.772;7.730;2024-03-08T00:11:07;98927.94;;;2.18;78.86
84143;BME280;74260;50.772;7.730;2024-03-08T00:11:38;98925.56;;;2.19;78.78
84143;BME280;74260;50.772;7.730;2024-03-08T00:12:10;98920.88;;;2.15;79.10
84143;BME280;74260;50.772;7.730;2024-03-08T00:12:44;98912.00;;;2.12;79.04
84143;BME280;74260;50.772;7.730;2024-03-08T00:13:15;98921.41;;;2.13;79.05
84143;BME280;74260;50.772;7.730;2024-03-08T00:13:45;98925.78;;;2.14;79.17
84143;BME280;74260;50.772;7.730;2024-03-08T00:14:16;98920.50;;;2.05;79.46
84143;BME280;74260;50.772;7.730;2024-03-08T00:14:46;98908.00;;;2.00;79.73
84143;BME280;74260;50.772;7.730;2024-03-08T00:15:17;98922.50;;;2.15;79.65
84143;BME280;74260;50.772;7.730;2024-03-08T00:15:47;98926.47;;;2.20;79.29
84143;BME280;74260;50.772;7.730;2024-03-08T00:16:18;98925.97;;;2.15;78.99
84143;BME280;74260;50.772;7.730;2024-03-08T00:16:49;98916.50;;;2.07;79.18
84143;BME280;74260;50.772;7.730;2024-03-08T00:17:21;98932.84;;;2.09;79.23
84143;BME280;74260;50.772;7.730;2024-03-08T00:17:54;98927.75;;;2.09;79.79
84143;BME280;74260;50.772;7.730;2024-03-08T00:18:25;98924.88;;;2.06;79.93
84143;BME280;74260;50.772;7.730;2024-03-08T00:18:55;98923.94;;;2.06;79.95
84143;BME280;74260;50.772;7.730;2024-03-08T00:19:26;98913.25;;;2.01;80.23
84143;BME280;74260;50.772;7.730;2024-03-08T00:19:56;98915.41;;;2.05;79.62
84143;BME280;74260;50.772;7.730;2024-03-08T00:20:27;98920.31;;;2.04;79.73
84143;BME280;74260;50.772;7.730;2024-03-08T00:20:58;98917.59;;;2.02;79.85
84143;BME280;74260;50.772;7.730;2024-03-08T00:21:28;98877.53;;;1.65;79.79
84143;BME280;74260;50.772;7.730;2024-03-08T00:21:59;98897.09;;;1.87;80.05
84143;BME280;74260;50.772;7.730;2024-03-08T00:22:30;98915.63;;;1.93;80.12
84143;BME280;74260;50.772;7.730;2024-03-08T00:23:00;98902.19;;;1.87;79.90
84143;BME280;74260;50.772;7.730;2024-03-08T00:23:31;98900.03;;;1.83;80.14
84143;BME280;74260;50.772;7.730;2024-03-08T00:24:03;98923.41;;;1.94;80.33
84143;BME280;74260;50.772;7.730;2024-03-08T00:24:35;98913.63;;;1.90;80.20
84143;BME280;74260;50.772;7.730;2024-03-08T00:25:07;98917.25;;;1.92;80.38
84143;BME280;74260;50.772;7.730;2024-03-08T00:25:38;98898.19;;;1.82;80.53
84143;BME280;74260;50.772;7.730;2024-03-08T00:26:09;98911.81;;;1.89;80.78
84143;BME280;74260;50.772;7.730;2024-03-08T00:26:39;98911.25;;;1.92;80.47
84143;BME280;74260;50.772;7.730;2024-03-08T00:27:10;98908.88;;;1.93;80.30
84143;BME280;74260;50.772;7.730;2024-03-08T00:27:41;98920.88;;;2.01;80.05
84143;BME280;74260;50.772;7.730;2024-03-08T00:28:13;98923.06;;;1.98;80.29
84143;BME280;74260;50.772;7.730;2024-03-08T00:28:45;98914.53;;;1.98;80.46
84143;BME280;74260;50.772;7.730;2024-03-08T00:29:15;98894.38;;;1.85;80.81
84143;BME280;74260;50.772;7.730;2024-03-08T00:29:50;98895.13;;;1.84;80.61
84143;BME280;74260;50.772;7.730;2024-03-08T00:30:20;98894.03;;;1.89;80.10
84143;BME280;74260;50.772;7.730;2024-03-08T00:30:53;98898.03;;;1.87;79.92
84143;BME280;74260;50.772;7.730;2024-03-08T00:31:24;98910.91;;;1.89;80.11
84143;BME280;74260;50.772;7.730;2024-03-08T00:31:55;98900.56;;;1.87;80.32
84143;BME280;74260;50.772;7.730;2024-03-08T00:32:26;98913.78;;;1.99;80.49
84143;BME280;74260;50.772;7.730;2024-03-08T00:32:57;98899.81;;;1.88;80.21
84143;BME280;74260;50.772;7.730;2024-03-08T00:33:27;98901.84;;;1.91;80.05
84143;BME280;74260;50.772;7.730;2024-03-08T00:33:58;98903.44;;;1.90;80.08
84143;BME280;74260;50.772;7.730;2024-03-08T00:34:29;98911.44;;;1.93;80.16
84143;BME280;74260;50.772;7.730;2024-03-08T00:34:59;98917.25;;;1.92;80.42
84143;BME280;74260;50.772;7.730;2024-03-08T00:35:30;98912.69;;;1.97;80.29
84143;BME280;74260;50.772;7.730;2024-03-08T00:36:00;98905.63;;;1.94;80.24
84143;BME280;74260;50.772;7.730;2024-03-08T00:36:31;98904.38;;;1.91;80.37
84143;BME280;74260;50.772;7.730;2024-03-08T00:37:01;98917.25;;;1.92;80.38
84143;BME280;74260;50.772;7.730;2024-03-08T00:37:31;98908.19;;;1.87;80.54
84143;BME280;74260;50.772;7.730;2024-03-08T00:38:04;98912.91;;;1.91;80.73
84143;BME280;74260;50.772;7.730;2024-03-08T00:38:35;98900.91;;;1.83;80.39
84143;BME280;74260;50.772;7.730;2024-03-08T00:39:05;98905.63;;;1.80;80.48
84143;BME280;74260;50.772;7.730;2024-03-08T00:39:38;98921.06;;;1.82;80.68
84143;BME280;74260;50.772;7.730;2024-03-08T00:40:09;98888.22;;;1.69;81.09
84143;BME280;74260;50.772;7.730;2024-03-08T00:40:39;98912.91;;;1.77;81.28
84143;BME280;74260;50.772;7.730;2024-03-08T00:41:11;98909.09;;;1.74;81.31
84143;BME280;74260;50.772;7.730;2024-03-08T00:41:41;98908.72;;;1.71;81.24
84143;BME280;74260;50.772;7.730;2024-03-08T00:42:12;98910.72;;;1.73;81.60
84143;BME280;74260;50.772;7.730;2024-03-08T00:42:42;98920.69;;;1.72;81.61
84143;BME280;74260;50.772;7.730;2024-03-08T00:43:13;98903.66;;;1.71;81.52
84143;BME280;74260;50.772;7.730;2024-03-08T00:43:45;98914.34;;;1.75;81.69
84143;BME280;74260;50.772;7.730;2024-03-08T00:44:17;98896.03;;;1.64;81.35
84143;BME280;74260;50.772;7.730;2024-03-08T00:44:48;98904.53;;;1.71;81.78
84143;BME280;74260;50.772;7.730;2024-03-08T00:45:21;98905.97;;;1.69;81.66
84143;BME280;74260;50.772;7.730;2024-03-08T00:45:53;98912.53;;;1.67;81.86
84143;BME280;74260;50.772;7.730;2024-03-08T00:46:23;98911.97;;;1.70;81.88
84143;BME280;74260;50.772;7.730;2024-03-08T00:46:54;98888.94;;;1.54;81.87
84143;BME280;74260;50.772;7.730;2024-03-08T00:47:24;98912.72;;;1.69;82.14
84143;BME280;74260;50.772;7.730;2024-03-08T00:47:54;98907.81;;;1.70;82.17
84143;BME280;74260;50.772;7.730;2024-03-08T00:48:26;98907.63;;;1.69;81.73
84143;BME280;74260;50.772;7.730;2024-03-08T00:48:56;98910.88;;;1.68;81.94
84143;BME280;74260;50.772;7.730;2024-03-08T00:49:27;98903.47;;;1.62;81.57
84143;BME280;74260;50.772;7.730;2024-03-08T00:49:57;98897.66;;;1.63;81.64
84143;BME280;74260;50.772;7.730;2024-03-08T00:50:28;98899.09;;;1.61;82.31
84143;BME280;74260;50.772;7.730;2024-03-08T00:50:58;98905.09;;;1.69;82.26
84143;BME280;74260;50.772;7.730;2024-03-08T00:51:28;98902.75;;;1.70;81.51
84143;BME280;74260;50.772;7.730;2024-03-08T00:51:59;98907.81;;;1.70;81.32
84143;BME280;74260;50.772;7.730;2024-03-08T00:52:31;98902.56;;;1.69;81.29
84143;BME280;74260;50.772;7.730;2024-03-08T00:53:02;98903.09;;;1.66;81.54
84143;BME280;74260;50.772;7.730;2024-03-08T00:53:33;98895.13;;;1.63;81.98
84143;BME280;74260;50.772;7.730;2024-03-08T00:54:05;98896.91;;;1.64;82.31
84143;BME280;74260;50.772;7.730;2024-03-08T00:54:36;98902.00;;;1.64;82.69
84143;BME280;74260;50.772;7.730;2024-03-08T00:55:07;98898.75;;;1.65;82.77
84143;BME280;74260;50.772;7.730;2024-03-08T00:55:40;98900.56;;;1.66;82.44
84143;BME280;74260;50.772;7.730;2024-03-08T00:56:11;98891.84;;;1.64;82.44
84143;BME280;74260;50.772;7.730;2024-03-08T00:56:41;98898.75;;;1.65;82.60
84143;BME280;74260;50.772;7.730;2024-03-08T00:57:12;98892.56;;;1.56;82.05
84143;BME280;74260;50.772;7.730;2024-03-08T00:57:42;98894.03;;;1.61;82.50
84143;BME280;74260;50.772;7.730;2024-03-08T00:58:13;98888.56;;;1.51;82.28
84143;BME280;74260;50.772;7.730;2024-03-08T00:58:43;98894.00;;;1.54;82.02
84143;BME280;74260;50.772;7.730;2024-03-08T00:59:13;98888.59;;;1.65;82.16
84143;BME280;74260;50.772;7.730;2024-03-08T00:59:44;98896.72;;;1.63;82.03
84143;BME280;74260;50.772;7.730;2024-03-08T01:00:15;98897.66;;;1.63;82.02
84143;BME280;74260;50.772;7.730;2024-03-08T01:00:45;98898.75;;;1.65;82.27
84143;BME280;74260;50.772;7.730;2024-03-08T01:01:15;98875.16;;;1.52;82.49
84143;BME280;74260;50.772;7.730;2024-03-08T01:01:46;98892.22;;;1.53;82.39
84143;BME280;74260;50.772;7.730;2024-03-08T01:02:16;98887.13;;;1.53;82.55
84143;BME280;74260;50.772;7.730;2024-03-08T01:02:49;98883.50;;;1.51;82.65
84143;BME280;74260;50.772;7.730;2024-03-08T01:03:19;98897.09;;;1.52;82.71
84143;BME280;74260;50.772;7.730;2024-03-08T01:03:49;98885.69;;;1.48;82.71
84143;BME280;74260;50.772;7.730;2024-03-08T01:04:20;98890.38;;;1.52;82.98
84143;BME280;74260;50.772;7.730;2024-03-08T01:04:51;98880.94;;;1.44;83.26
84143;BME280;74260;50.772;7.730;2024-03-08T01:05:23;98880.19;;;1.38;82.78
84143;BME280;74260;50.772;7.730;2024-03-08T01:05:54;98868.06;;;1.36;82.99
84143;BME280;74260;50.772;7.730;2024-03-08T01:06:25;98885.28;;;1.38;82.87
84143;BME280;74260;50.772;7.730;2024-03-08T01:06:57;98884.75;;;1.41;83.03
84143;BME280;74260;50.772;7.730;2024-03-08T01:07:27;98892.38;;;1.41;83.12
84143;BME280;74260;50.772;7.730;2024-03-08T01:07:58;98886.78;;;1.43;83.37
84143;BME280;74260;50.772;7.730;2024-03-08T01:08:28;98897.63;;;1.42;83.18
84143;BME280;74260;50.772;7.730;2024-03-08T01:09:01;98893.81;;;1.46;83.21
84143;BME280;74260;50.772;7.730;2024-03-08T01:09:32;98868.78;;;1.42;82.81
84143;BME280;74260;50.772;7.730;2024-03-08T01:10:04;98886.38;;;1.47;83.08
84143;BME280;74260;50.772;7.730;2024-03-08T01:10:39;98883.84;;;1.40;83.32
84143;BME280;74260;50.772;7.730;2024-03-08T01:11:10;98875.88;;;1.37;83.33
84143;BME280;74260;50.772;7.730;2024-03-08T01:11:41;98875.88;;;1.37;83.67
84143;BME280;74260;50.772;7.730;2024-03-08T01:12:13;98887.47;;;1.42;83.59
84143;BME280;74260;50.772;7.730;2024-03-08T01:12:43;98882.03;;;1.39;83.90
84143;BME280;74260;50.772;7.730;2024-03-08T01:13:15;98880.59;;;1.34;83.35
84143;BME280;74260;50.772;7.730;2024-03-08T01:13:45;98862.63;;;1.26;83.67
84143;BME280;74260;50.772;7.730;2024-03-08T01:14:18;98883.84;;;1.40;83.92
84143;BME280;74260;50.772;7.730;2024-03-08T01:14:49;98878.03;;;1.34;83.74
84143;BME280;74260;50.772;7.730;2024-03-08T01:15:19;98878.41;;;1.37;83.77
84143;BME280;74260;50.772;7.730;2024-03-08T01:15:49;98869.34;;;1.32;83.82
84143;BME280;74260;50.772;7.730;2024-03-08T01:16:20;98873.31;;;1.37;84.33
84143;BME280;74260;50.772;7.730;2024-03-08T01:16:51;98872.22;;;1.35;83.69
84143;BME280;74260;50.772;7.730;2024-03-08T01:17:23;98879.84;;;1.42;83.81
84143;BME280;74260;50.772;7.730;2024-03-08T01:17:54;98870.78;;;1.37;83.63
84143;BME280;74260;50.772;7.730;2024-03-08T01:18:27;98874.25;;;1.38;83.51
84143;BME280;74260;50.772;7.730;2024-03-08T01:18:58;98872.41;;;1.37;83.90
84143;BME280;74260;50.772;7.730;2024-03-08T01:19:29;98870.59;;;1.36;83.70
84143;BME280;74260;50.772;7.730;2024-03-08T01:20:04;98870.06;;;1.38;83.57
84143;BME280;74260;50.772;7.730;2024-03-08T01:20:35;98857.00;;;1.28;83.53
84143;BME280;74260;50.772;7.730;2024-03-08T01:21:05;98873.88;;;1.35;83.61
84143;BME280;74260;50.772;7.730;2024-03-08T01:21:36;98871.13;;;1.33;83.24
84143;BME280;74260;50.772;7.730;2024-03-08T01:22:07;98869.00;;;1.36;83.66
84143;BME280;74260;50.772;7.730;2024-03-08T01:22:38;98861.38;;;1.29;83.48
84143;BME280;74260;50.772;7.730;2024-03-08T01:23:09;98832.16;;;1.18;83.69
84143;BME280;74260;50.772;7.730;2024-03-08T01:23:41;98868.81;;;1.35;83.83
84143;BME280;74260;50.772;7.730;2024-03-08T01:24:12;98861.72;;;1.32;83.95
84143;BME280;74260;50.772;7.730;2024-03-08T01:24:42;98859.72;;;1.30;83.75
84143;BME280;74260;50.772;7.730;2024-03-08T01:25:13;98861.38;;;1.29;84.30
84143;BME280;74260;50.772;7.730;2024-03-08T01:25:43;98860.09;;;1.33;84.07
84143;BME280;74260;50.772;7.730;2024-03-08T01:26:14;98849.56;;;1.30;83.79
84143;BME280;74260;50.772;7.730;2024-03-08T01:26:45;98865.88;;;1.32;83.38
84143;BME280;74260;50.772;7.730;2024-03-08T01:27:15;98868.41;;;1.32;83.61
84143;BME280;74260;50.772;7.730;2024-03-08T01:27:46;98864.97;;;1.38;83.83
84143;BME280;74260;50.772;7.730;2024-03-08T01:28:16;98859.19;;;1.32;83.61
84143;BME280;74260;50.772;7.730;2024-03-08T01:28:47;98828.19;;;1.13;83.71
84143;BME280;74260;50.772;7.730;2024-03-08T01:29:17;98859.19;;;1.32;83.79
84143;BME280;74260;50.772;7.730;2024-03-08T01:29:48;98855.56;;;1.30;84.20
84143;BME280;74260;50.772;7.730;2024-03-08T01:30:21;98852.09;;;1.30;84.18
84143;BME280;74260;50.772;7.730;2024-03-08T01:30:54;98841.94;;;1.23;84.04
84143;BME280;74260;50.772;7.730;2024-03-08T01:31:27;98852.84;;;1.29;84.04
84143;BME280;74260;50.772;7.730;2024-03-08T01:31:59;98852.84;;;1.29;83.75
84143;BME280;74260;50.772;7.730;2024-03-08T01:32:31;98856.13;;;1.28;84.06
84143;BME280;74260;50.772;7.730;2024-03-08T01:33:02;98837.78;;;1.23;83.73
84143;BME280;74260;50.772;7.730;2024-03-08T01:33:33;98841.41;;;1.25;84.05
84143;BME280;74260;50.772;7.730;2024-03-08T01:34:03;98832.69;;;1.16;83.82
84143;BME280;74260;50.772;7.730;2024-03-08T01:34:34;98828.88;;;1.19;83.78
84143;BME280;74260;50.772;7.730;2024-03-08T01:35:05;98836.50;;;1.19;83.83
84143;BME280;74260;50.772;7.730;2024-03-08T01:35:35;98843.59;;;1.29;83.55
84143;BME280;74260;50.772;7.730;2024-03-08T01:36:07;98827.44;;;1.14;83.81
84143;BME280;74260;50.772;7.730;2024-03-08T01:36:38;98840.13;;;1.22;83.75
84143;BME280;74260;50.772;7.730;2024-03-08T01:37:10;98836.50;;;1.12;84.01
84143;BME280;74260;50.772;7.730;2024-03-08T01:37:40;98839.97;;;1.27;84.04
84143;BME280;74260;50.772;7.730;2024-03-08T01:38:11;98836.34;;;1.25;83.99
84143;BME280;74260;50.772;7.730;2024-03-08T01:38:42;98850.13;;;1.27;83.75
84143;BME280;74260;50.772;7.730;2024-03-08T01:39:13;98846.84;;;1.28;83.51
84143;BME280;74260;50.772;7.730;2024-03-08T01:39:44;98837.97;;;1.25;83.39
84143;BME280;74260;50.772;7.730;2024-03-08T01:40:26;98845.97;;;1.28;83.63
84143;BME280;74260;50.772;7.730;2024-03-08T01:40:57;98820.00;;;1.16;83.51
84143;BME280;74260;50.772;7.730;2024-03-08T01:41:27;98835.25;;;1.30;83.24
84143;BME280;74260;50.772;7.730;2024-03-08T01:42:00;98799.00;;;1.10;83.17
84143;BME280;74260;50.772;7.730;2024-03-08T01:42:31;98827.97;;;1.26;83.25
84143;BME280;74260;50.772;7.730;2024-03-08T01:43:26;98832.72;;;1.30;83.36
84143;BME280;74260;50.772;7.730;2024-03-08T01:43:59;98835.25;;;1.23;83.54
84143;BME280;74260;50.772;7.730;2024-03-08T01:44:30;98841.06;;;1.22;83.77
84143;BME280;74260;50.772;7.730;2024-03-08T01:45:01;98824.41;;;1.31;83.33
84143;BME280;74260;50.772;7.730;2024-03-08T01:45:31;98836.00;;;1.36;83.23
84143;BME280;74260;50.772;7.730;2024-03-08T01:46:05;98830.53;;;1.33;83.29
84143;BME280;74260;50.772;7.730;2024-03-08T01:46:36;98831.63;;;1.35;82.96
84143;BME280;74260;50.772;7.730;2024-03-08T01:47:07;98831.28;;;1.39;83.14
84143;BME280;74260;50.772;7.730;2024-03-08T01:47:37;98829.44;;;1.38;82.54
84143;BME280;74260;50.772;7.730;2024-03-08T01:48:09;98823.66;;;1.32;82.69
84143;BME280;74260;50.772;7.730;2024-03-08T01:48:40;98826.19;;;1.39;82.90
84143;BME280;74260;50.772;7.730;2024-03-08T01:49:12;98825.81;;;1.50;82.54
84143;BME280;74260;50.772;7.730;2024-03-08T01:49:43;98828.56;;;1.52;82.30
84143;BME280;74260;50.772;7.730;2024-03-08T01:50:14;98813.34;;;1.38;82.29
84143;BME280;74260;50.772;7.730;2024-03-08T01:50:46;98793.94;;;1.24;82.47
84143;BME280;74260;50.772;7.730;2024-03-08T01:51:17;98803.72;;;1.35;82.36
84143;BME280;74260;50.772;7.730;2024-03-08T01:51:48;98818.75;;;1.41;82.70
84143;BME280;74260;50.772;7.730;2024-03-08T01:52:19;98818.22;;;1.29;82.88
84143;BME280;74260;50.772;7.730;2024-03-08T01:52:52;98821.66;;;1.37;82.84
84143;BME280;74260;50.772;7.730;2024-03-08T01:53:26;98816.41;;;1.35;82.93
84143;BME280;74260;50.772;7.730;2024-03-08T01:53:58;98812.75;;;1.26;83.43
84143;BME280;74260;50.772;7.730;2024-03-08T01:54:30;98804.09;;;1.24;83.26
84143;BME280;74260;50.772;7.730;2024-03-08T01:55:06;98812.75;;;1.26;83.48
84143;BME280;74260;50.772;7.730;2024-03-08T01:55:38;98816.97;;;1.33;83.46
84143;BME280;74260;50.772;7.730;2024-03-08T01:56:08;98789.22;;;1.20;83.38
84143;BME280;74260;50.772;7.730;2024-03-08T01:56:41;98818.59;;;1.32;83.37
84143;BME280;74260;50.772;7.730;2024-03-08T01:57:14;98811.88;;;1.33;83.50
84143;BME280;74260;50.772;7.730;2024-03-08T01:57:45;98801.72;;;1.26;83.11
84143;BME280;74260;50.772;7.730;2024-03-08T01:58:17;98811.72;;;1.31;83.20
84143;BME280;74260;50.772;7.730;2024-03-08T01:58:50;98812.25;;;1.29;82.87
84143;BME280;74260;50.772;7.730;2024-03-08T01:59:21;98815.50;;;1.28;83.10
84143;BME280;74260;50.772;7.730;2024-03-08T01:59:51;98820.19;;;1.32;83.13
84143;BME280;74260;50.772;7.730;2024-03-08T02:00:26;98797.94;;;1.29;83.12
84143;BME280;74260;50.772;7.730;2024-03-08T02:00:57;98801.91;;;1.34;83.04
84143;BME280;74260;50.772;7.730;2024-03-08T02:01:30;98797.75;;;1.28;83.15
84143;BME280;74260;50.772;7.730;2024-03-08T02:02:01;98805.91;;;1.39;82.68
84143;BME280;74260;50.772;7.730;2024-03-08T02:02:33;98791.75;;;1.27;82.82
84143;BME280;74260;50.772;7.730;2024-03-08T02:03:07;98816.75;;;1.38;82.42
84143;BME280;74260;50.772;7.730;2024-03-08T02:03:37;98791.94;;;1.36;82.38
84143;BME280;74260;50.772;7.730;2024-03-08T02:04:08;98803.53;;;1.41;82.24
84143;BME280;74260;50.772;7.730;2024-03-08T02:04:39;98801.91;;;1.48;82.36
84143;BME280;74260;50.772;7.730;2024-03-08T02:05:09;98807.34;;;1.51;82.23
84143;BME280;74260;50.772;7.730;2024-03-08T02:05:40;98807.34;;;1.51;82.38
84143;BME280;74260;50.772;7.730;2024-03-08T02:06:11;98801.53;;;1.52;81.77
84143;BME280;74260;50.772;7.730;2024-03-08T02:06:44;98802.63;;;1.54;81.65
84143;BME280;74260;50.772;7.730;2024-03-08T02:07:15;98804.81;;;1.58;81.76
84143;BME280;74260;50.772;7.730;2024-03-08T02:07:47;98775.78;;;1.42;81.73
84143;BME280;74260;50.772;7.730;2024-03-08T02:08:17;98794.66;;;1.58;81.86
84143;BME280;74260;50.772;7.730;2024-03-08T02:08:48;98798.63;;;1.63;81.65
84143;BME280;74260;50.772;7.730;2024-03-08T02:09:19;98804.06;;;1.66;81.63
84143;BME280;74260;50.772;7.730;2024-03-08T02:09:49;98796.09;;;1.56;81.50
84143;BME280;74260;50.772;7.730;2024-03-08T02:10:20;98761.84;;;1.32;81.58
84143;BME280;74260;50.772;7.730;2024-03-08T02:10:52;98803.34;;;1.60;81.95
84143;BME280;74260;50.772;7.730;2024-03-08T02:11:23;98791.03;;;1.49;81.94
84143;BME280;74260;50.772;7.730;2024-03-08T02:11:54;98798.63;;;1.49;82.38
84143;BME280;74260;50.772;7.730;2024-03-08T02:12:27;98804.97;;;1.53;82.31
84143;BME280;74260;50.772;7.730;2024-03-08T02:12:57;98795.56;;;1.59;81.66
84143;BME280;74260;50.772;7.730;2024-03-08T02:13:28;98796.28;;;1.65;81.21
84143;BME280;74260;50.772;7.730;2024-03-08T02:13:58;98777.06;;;1.60;81.13
84143;BME280;74260;50.772;7.730;2024-03-08T02:14:29;98782.47;;;1.63;81.33
84143;BME280;74260;50.772;7.730;2024-03-08T02:15:01;98793.56;;;1.63;81.24
84143;BME280;74260;50.772;7.730;2024-03-08T02:15:54;98797.19;;;1.65;81.17
84143;BME280;74260;50.772;7.730;2024-03-08T02:16:31;98793.19;;;1.60;80.87
84143;BME280;74260;50.772;7.730;2024-03-08T02:17:02;98786.69;;;1.62;81.15
84143;BME280;74260;50.772;7.730;2024-03-08T02:17:33;98787.03;;;1.65;80.82
84143;BME280;74260;50.772;7.730;2024-03-08T02:18:05;98768.91;;;1.62;80.90
84143;BME280;74260;50.772;7.730;2024-03-08T02:18:37;98781.03;;;1.65;81.05
84143;BME280;74260;50.772;7.730;2024-03-08T02:19:09;98792.81;;;1.71;80.78
84143;BME280;74260;50.772;7.730;2024-03-08T02:19:40;98793.38;;;1.69;80.77
84143;BME280;74260;50.772;7.730;2024-03-08T02:20:10;98795.53;;;1.66;81.27
84143;BME280;74260;50.772;7.730;2024-03-08T02:20:43;98793.00;;;1.66;81.27
84143;BME280;74260;50.772;7.730;2024-03-08T02:21:16;98791.94;;;1.64;81.13
84143;BME280;74260;50.772;7.730;2024-03-08T02:21:48;98799.72;;;1.65;81.22
84143;BME280;74260;50.772;7.730;2024-03-08T02:22:18;98797.53;;;1.61;81.37
84143;BME280;74260;50.772;7.730;2024-03-08T02:22:50;98791.75;;;1.62;81.17
84143;BME280;74260;50.772;7.730;2024-03-08T02:23:22;98790.66;;;1.67;80.80
84143;BME280;74260;50.772;7.730;2024-03-08T02:23:53;98795.34;;;1.64;81.10
84143;BME280;74260;50.772;7.730;2024-03-08T02:24:24;98778.50;;;1.58;81.17
84143;BME280;74260;50.772;7.730;2024-03-08T02:24:56;98760.75;;;1.51;81.12
84143;BME280;74260;50.772;7.730;2024-03-08T02:25:27;98775.97;;;1.65;80.61
84143;BME280;74260;50.772;7.730;2024-03-08T02:25:58;98797.53;;;1.82;80.27
84143;BME280;74260;50.772;7.730;2024-03-08T02:26:28;98792.78;;;1.85;79.94
84143;BME280;74260;50.772;7.730;2024-03-08T02:27:00;98778.84;;;1.75;79.80
84143;BME280;74260;50.772;7.730;2024-03-08T02:27:31;98792.78;;;1.85;79.97
84143;BME280;74260;50.772;7.730;2024-03-08T02:28:03;98789.72;;;1.81;80.21
84143;BME280;74260;50.772;7.730;2024-03-08T02:28:33;98788.81;;;1.80;80.36
84143;BME280;74260;50.772;7.730;2024-03-08T02:29:04;98790.25;;;1.78;80.52
84143;BME280;74260;50.772;7.730;2024-03-08T02:29:36;98780.84;;;1.70;80.46
84143;BME280;74260;50.772;7.730;2024-03-08T02:30:08;98789.75;;;1.74;81.04
84143;BME280;74260;50.772;7.730;2024-03-08T02:30:40;98763.44;;;1.59;80.67
84143;BME280;74260;50.772;7.730;2024-03-08T02:31:10;98778.84;;;1.75;80.48
84143;BME280;74260;50.772;7.730;2024-03-08T02:31:41;98772.66;;;1.73;80.74
84143;BME280;74260;50.772;7.730;2024-03-08T02:32:11;98784.09;;;1.76;80.87
84143;BME280;74260;50.772;7.730;2024-03-08T02:32:43;98774.69;;;1.75;80.30
84143;BME280;74260;50.772;7.730;2024-03-08T02:33:17;98774.69;;;1.75;80.30
84143;BME280;74260;50.772;7.730;2024-03-08T02:33:48;98781.38;;;1.82;80.34
84143;BME280;74260;50.772;7.730;2024-03-08T02:34:18;98783.19;;;1.83;80.57
84143;BME280;74260;50.772;7.730;2024-03-08T02:34:50;98765.44;;;1.76;80.29
84143;BME280;74260;50.772;7.730;2024-03-08T02:35:21;98778.66;;;1.80;80.23
84143;BME280;74260;50.772;7.730;2024-03-08T02:35:53;98769.03;;;1.78;80.57
84143;BME280;74260;50.772;7.730;2024-03-08T02:36:24;98767.06;;;1.75;80.50
84143;BME280;74260;50.772;7.730;2024-03-08T02:36:55;98776.13;;;1.80;80.24
84143;BME280;74260;50.772;7.730;2024-03-08T02:37:26;98773.03;;;1.83;79.64
84143;BME280;74260;50.772;7.730;2024-03-08T02:37:59;98758.91;;;1.71;80.25
84143;BME280;74260;50.772;7.730;2024-03-08T02:38:29;98769.59;;;1.75;79.96
84143;BME280;74260;50.772;7.730;2024-03-08T02:39:03;98773.22;;;1.77;80.11
84143;BME280;74260;50.772;7.730;2024-03-08T02:39:33;98783.72;;;1.80;80.14
84143;BME280;74260;50.772;7.730;2024-03-08T02:40:05;98780.09;;;1.78;80.67
84143;BME280;74260;50.772;7.730;2024-03-08T02:40:35;98778.31;;;1.77;80.53
84143;BME280;74260;50.772;7.730;2024-03-08T02:41:06;98767.41;;;1.71;80.30
84143;BME280;74260;50.772;7.730;2024-03-08T02:41:36;98777.56;;;1.85;80.06
84143;BME280;74260;50.772;7.730;2024-03-08T02:42:07;98784.81;;;1.89;79.99
84143;BME280;74260;50.772;7.730;2024-03-08T02:42:37;98782.97;;;1.88;79.63
84143;BME280;74260;50.772;7.730;2024-03-08T02:43:09;98780.84;;;1.84;79.83
84143;BME280;74260;50.772;7.730;2024-03-08T02:43:39;98774.50;;;1.81;80.16
84143;BME280;74260;50.772;7.730;2024-03-08T02:44:10;98766.88;;;1.74;80.61
84143;BME280;74260;50.772;7.730;2024-03-08T02:44:43;98780.84;;;1.77;80.54
84143;BME280;74260;50.772;7.730;2024-03-08T02:45:14;98776.47;;;1.76;80.82
84143;BME280;74260;50.772;7.730;2024-03-08T02:45:45;98770.13;;;1.73;80.34
84143;BME280;74260;50.772;7.730;2024-03-08T02:46:16;98772.16;;;1.68;80.52
84143;BME280;74260;50.772;7.730;2024-03-08T02:46:46;98771.41;;;1.69;80.27
84143;BME280;74260;50.772;7.730;2024-03-08T02:47:16;98763.25;;;1.65;80.34
84143;BME280;74260;50.772;7.730;2024-03-08T02:47:48;98775.78;;;1.70;80.66
84143;BME280;74260;50.772;7.730;2024-03-08T02:48:20;98773.41;;;1.72;80.41